»·PEaware :: N11ST KPDX-KBZN

N11ST :: KPDX-KBZN

FLIGHT INFORMATION

Flight Status: Arrived
Operator: Privately registered:
United States
More flights under this callsign
Pilot: Jose O. (25670)
Aircraft: SOCATA TBM-900
(TBM9)
More flights by this aircraft type
Origin: KPDX Portland Intl
United States
Destination: KBZN Gallatin
United States
More flights between these airports :: More routes between these airports
Route: +PDT J16 HIA FALIA
File this flight plan on PilotEdge
Remarks: / G
Altitude:
(Current/Filed)
27,000ft
Speed:
(Current/Filed)
250kts
Departed: 31-Dec-19 04:33 PM
Arrived: 31-Dec-19 06:06 PM
Distance/Time
Traveled:
479nm/1:33
Distance/Time
To Go:
Arrived

Flight Plot

Page will automatically refresh every two minutes.

Flight plan parsing failed; only flown route is shown


Map Options




Map Legend


Flown Route
Filed Route
Departure Airport
Arrival Airport
Navaid (VOR, NDB)
Fix

Horizontal Profiles

Position Reports

Time Latitude Longitude Heading Altitude Ground
Speed
31-Dec-19 16:13 45.587435 -122.583524 208 25ft 0kts
31-Dec-19 16:14 45.587435 -122.583524 208 25ft 0kts
31-Dec-19 16:15 45.587435 -122.583524 208 25ft 0kts
31-Dec-19 16:16 45.587435 -122.583524 208 25ft 0kts
31-Dec-19 16:17 45.587435 -122.583524 208 25ft 0kts
31-Dec-19 16:18 45.587435 -122.583524 208 25ft 0kts
31-Dec-19 16:19 45.587435 -122.583524 208 25ft 0kts
31-Dec-19 16:20 45.587435 -122.583524 208 25ft 0kts
31-Dec-19 16:21 45.587435 -122.583524 208 25ft 0kts
31-Dec-19 16:22 45.587435 -122.583524 208 25ft 0kts
31-Dec-19 16:23 45.587435 -122.583524 208 25ft 0kts
31-Dec-19 16:24 45.587435 -122.583524 208 25ft 0kts
31-Dec-19 16:25 45.587435 -122.583524 208 25ft 0kts
31-Dec-19 16:26 45.587435 -122.583524 208 25ft 0kts
31-Dec-19 16:27 45.587435 -122.583524 208 25ft 0kts
31-Dec-19 16:28 45.587412 -122.583542 208 25ft 2kts
31-Dec-19 16:29 45.588890 -122.586184 313 25ft 19kts
31-Dec-19 16:30 45.592083 -122.594034 299 25ft 24kts
31-Dec-19 16:31 45.594156 -122.599452 282 25ft 21kts
31-Dec-19 16:32 45.580741 -122.630506 271 855ft 151kts
31-Dec-19 16:33 45.607810 -122.681873 304 2409ft 174kts
31-Dec-19 16:34 45.640313 -122.725050 353 4345ft 175kts
31-Dec-19 16:35 45.663776 -122.671716 84 5987ft 189kts
31-Dec-19 16:36 45.675132 -122.596638 84 7784ft 201kts
31-Dec-19 16:37 45.678498 -122.519303 94 9537ft 210kts
31-Dec-19 16:38 45.680051 -122.444226 91 11255ft 218kts
31-Dec-19 16:39 45.681739 -122.363881 90 12835ft 233kts
31-Dec-19 16:40 45.683135 -122.294143 91 14331ft 237kts
31-Dec-19 16:41 45.684675 -122.212513 91 15984ft 243kts
31-Dec-19 16:42 45.686175 -122.129189 91 17597ft 250kts
31-Dec-19 16:43 45.687659 -122.041808 91 19045ft 263kts
31-Dec-19 16:44 45.689189 -121.948127 88 20602ft 276kts
31-Dec-19 16:45 45.690766 -121.849410 87 22169ft 289kts
31-Dec-19 16:46 45.692330 -121.744255 86 23808ft 304kts
31-Dec-19 16:47 45.694224 -121.613659 87 25976ft 311kts
31-Dec-19 16:48 45.695811 -121.484652 88 27048ft 354kts
31-Dec-19 16:49 45.697344 -121.348681 88 27022ft 397kts
31-Dec-19 16:50 45.698645 -121.226951 89 26985ft 412kts
31-Dec-19 16:51 45.700205 -121.056513 88 26981ft 417kts
31-Dec-19 16:52 45.701595 -120.871894 88 26976ft 417kts
31-Dec-19 16:53 45.702705 -120.685659 87 26971ft 415kts
31-Dec-19 16:54 45.703513 -120.498825 87 26958ft 416kts
31-Dec-19 16:55 45.704053 -120.317076 88 26931ft 416kts
31-Dec-19 16:56 45.704236 -120.142090 88 26925ft 414kts
31-Dec-19 16:57 45.704169 -119.979837 88 26925ft 414kts
31-Dec-19 16:58 45.703908 -119.816256 88 26941ft 414kts
31-Dec-19 16:59 45.703372 -119.652233 88 26944ft 414kts
31-Dec-19 17:00 45.702641 -119.488894 88 26950ft 413kts
31-Dec-19 17:01 45.701765 -119.340701 88 26949ft 412kts
31-Dec-19 17:02 45.700666 -119.188825 88 26939ft 410kts
31-Dec-19 17:03 45.699450 -119.045468 88 26945ft 408kts
31-Dec-19 17:04 45.699381 -118.914900 81 26927ft 405kts
31-Dec-19 17:05 45.707037 -118.776612 81 26929ft 405kts
31-Dec-19 17:06 45.714109 -118.640259 81 26939ft 405kts
31-Dec-19 17:07 45.721068 -118.502863 81 26954ft 406kts
31-Dec-19 17:08 45.727319 -118.376500 81 26979ft 406kts
31-Dec-19 17:09 45.732735 -118.265238 82 26941ft 411kts
31-Dec-19 17:10 45.739245 -118.127525 82 26950ft 413kts
31-Dec-19 17:11 45.745372 -117.993750 82 26952ft 402kts
31-Dec-19 17:12 45.751199 -117.864081 82 26991ft 391kts
31-Dec-19 17:13 45.757418 -117.722689 82 26967ft 404kts
31-Dec-19 17:14 45.763923 -117.570016 82 26979ft 404kts
31-Dec-19 17:15 45.770143 -117.418510 82 26977ft 403kts
31-Dec-19 17:16 45.775747 -117.277990 82 26959ft 401kts
31-Dec-19 17:17 45.781335 -117.133079 82 26958ft 398kts
31-Dec-19 17:18 45.787065 -116.979526 82 26954ft 396kts
31-Dec-19 17:19 45.792837 -116.818439 82 26948ft 394kts
31-Dec-19 17:20 45.798328 -116.659768 82 26946ft 394kts
31-Dec-19 17:21 45.803959 -116.489685 83 26939ft 393kts
31-Dec-19 17:22 45.809132 -116.326048 83 26923ft 394kts
31-Dec-19 17:24 45.813788 -116.171724 84 26913ft 392kts
31-Dec-19 17:25 45.818714 -116.000328 84 26931ft 390kts
31-Dec-19 17:26 45.823490 -115.825233 84 26954ft 390kts
31-Dec-19 17:27 45.828086 -115.646520 83 26984ft 389kts
31-Dec-19 17:28 45.832370 -115.469272 83 27028ft 388kts
31-Dec-19 17:29 45.836015 -115.309139 84 27015ft 388kts
31-Dec-19 17:30 45.839663 -115.136702 84 27003ft 387kts
31-Dec-19 17:31 45.842845 -114.975352 84 27007ft 386kts
31-Dec-19 17:32 45.845990 -114.802888 84 26987ft 386kts
31-Dec-19 17:33 45.848678 -114.642688 84 26975ft 385kts
31-Dec-19 17:34 45.851027 -114.490411 84 26966ft 385kts
31-Dec-19 17:35 45.853089 -114.344786 85 26957ft 387kts
31-Dec-19 17:36 45.855053 -114.190828 85 26942ft 385kts
31-Dec-19 17:37 45.856819 -114.036629 85 26934ft 386kts
31-Dec-19 17:38 45.858380 -113.883357 85 26936ft 386kts
31-Dec-19 17:39 45.859723 -113.730367 85 26932ft 385kts
31-Dec-19 17:40 45.860871 -113.576884 85 26935ft 383kts
31-Dec-19 17:41 45.861848 -113.421156 85 24081ft 420kts
31-Dec-19 17:42 45.862554 -113.265619 85 20880ft 400kts
31-Dec-19 17:43 45.863073 -113.113752 85 17353ft 375kts
31-Dec-19 17:44 45.863378 -112.973821 86 15014ft 340kts
31-Dec-19 17:44 45.863456 -112.869710 85 15001ft 298kts
31-Dec-19 17:46 45.863473 -112.739811 85 15002ft 273kts
31-Dec-19 17:46 45.863387 -112.652147 85 15014ft 260kts
31-Dec-19 17:47 45.863231 -112.549900 84 15000ft 257kts
31-Dec-19 17:48 45.862976 -112.448356 84 15015ft 255kts
31-Dec-19 17:49 45.862621 -112.347733 84 14992ft 256kts
31-Dec-19 17:50 45.867586 -112.245252 73 14994ft 250kts
31-Dec-19 17:51 45.879160 -112.143393 72 15003ft 254kts
31-Dec-19 17:52 45.890833 -112.040921 72 15003ft 255kts
31-Dec-19 17:53 45.902754 -111.935842 73 14103ft 270kts
31-Dec-19 17:54 45.915053 -111.826216 73 12685ft 274kts
31-Dec-19 17:55 45.927464 -111.714920 77 10861ft 278kts
31-Dec-19 17:56 45.939288 -111.607376 84 9010ft 243kts
31-Dec-19 17:57 45.948346 -111.523963 84 8991ft 191kts
31-Dec-19 17:58 45.955703 -111.444306 101 7825ft 202kts
31-Dec-19 17:59 45.938462 -111.376193 132 7600ft 170kts
31-Dec-19 18:00 45.903693 -111.327025 140 7644ft 166kts
31-Dec-19 18:01 45.870145 -111.280532 139 6670ft 164kts
31-Dec-19 18:02 45.836911 -111.234380 137 5787ft 163kts
31-Dec-19 18:03 45.807921 -111.194124 135 5012ft 127kts
31-Dec-19 18:04 45.782851 -111.159194 134 4455ft 105kts
31-Dec-19 18:05 45.774111 -111.150797 226 4460ft 23kts
31-Dec-19 18:06 45.773102 -111.152196 313 4462ft 0kts
31-Dec-19 18:07 45.773102 -111.152196 313 4462ft 0kts

Navigation Log

Ident Type
Flight plan parsing failed, navigation log unavailable